Wetterdaten: Woche 18.07.11 - 24.07.11 (KW29)
Datum Zeit Temp. A. Feuchte A. Luftdruck Regen Wind Richtung Taupunkt Windchill Windben
18.07.2011 00:00 18,5 C 61 % 1004,6 hPa 0,0 l/m 5,6 km/h S 10,8 C 18,5 C 22,9 km/h
18.07.2011 01:00 18,4 C 63 % 1005,1 hPa 0,0 l/m 3,0 km/h O-NO 11,1 C 18,4 C 19,3 km/h
18.07.2011 02:00 18,3 C 64 % 1005,4 hPa 0,0 l/m 2,0 km/h SW 11,4 C 18,3 C 13,3 km/h
18.07.2011 03:00 18,2 C 65 % 1005,7 hPa 0,0 l/m 2,5 km/h S 11,5 C 18,2 C 16,1 km/h
18.07.2011 04:00 17,7 C 67 % 1005,8 hPa 0,0 l/m 2,2 km/h N-NW 11,5 C 17,7 C 14,1 km/h
18.07.2011 05:00 16,5 C 71 % 1006,4 hPa 0,0 l/m 2,4 km/h W-SW 11,3 C 16,5 C 17,3 km/h
18.07.2011 06:00 15,7 C 74 % 1006,9 hPa 0,0 l/m 4,1 km/h S-SO 11,0 C 15,7 C 22,9 km/h
18.07.2011 07:00 15,0 C 75 % 1007,2 hPa 0,0 l/m 2,7 km/h S 10,6 C 15,0 C 17,3 km/h
18.07.2011 08:00 15,0 C 73 % 1007,8 hPa 0,0 l/m 0,8 km/h S 10,1 C 15,0 C 6,8 km/h
18.07.2011 09:00 15,7 C 67 % 1008,3 hPa 0,0 l/m 0,6 km/h N 9,6 C 15,7 C 5,2 km/h
18.07.2011 10:00 16,7 C 64 % 1008,6 hPa 0,0 l/m 1,1 km/h SW 9,8 C 16,7 C 6,4 km/h
18.07.2011 11:00 17,7 C 61 % 1008,5 hPa 0,0 l/m 1,7 km/h S 10,1 C 17,7 C 9,7 km/h
18.07.2011 12:00 18,4 C 60 % 1008,7 hPa 0,0 l/m 1,6 km/h S-SW 10,5 C 18,4 C 10,1 km/h
18.07.2011 13:00 19,6 C 57 % 1008,9 hPa 0,0 l/m 2,3 km/h SO 10,8 C 19,6 C 10,5 km/h
18.07.2011 14:00 20,2 C 54 % 1008,5 hPa 0,0 l/m 3,1 km/h S 10,5 C 20,2 C 12,1 km/h
18.07.2011 15:00 21,6 C 47 % 1008,1 hPa 0,0 l/m 1,7 km/h W-SW 9,8 C 21,6 C 8,4 km/h
18.07.2011 16:00 22,8 C 44 % 1007,9 hPa 0,0 l/m 1,9 km/h NW 9,7 C 22,8 C 6,8 km/h
18.07.2011 17:00 23,1 C 44 % 1007,4 hPa 0,0 l/m 0,9 km/h N-NO 10,2 C 23,1 C 4,4 km/h
18.07.2011 18:00 22,3 C 45 % 1007,1 hPa 0,0 l/m 0,8 km/h SW 9,9 C 22,3 C 4,0 km/h
18.07.2011 19:00 20,8 C 50 % 1007,1 hPa 0,0 l/m 1,1 km/h W-SW 9,9 C 20,8 C 4,4 km/h
18.07.2011 20:00 19,2 C 57 % 1007,2 hPa 0,0 l/m 0,4 km/h N 10,3 C 19,2 C 2,8 km/h
18.07.2011 21:00 18,0 C 63 % 1007,9 hPa 0,0 l/m 0,0 km/h N 10,9 C 18,0 C 0,0 km/h
18.07.2011 22:00 17,4 C 66 % 1008,1 hPa 0,0 l/m 0,3 km/h N 10,9 C 17,4 C 2,8 km/h
18.07.2011 23:00 16,8 C 68 % 1008,3 hPa 0,0 l/m 0,0 km/h N 10,8 C 16,8 C 1,2 km/h
19.07.2011 00:00 15,4 C 72 % 1008,4 hPa 0,0 l/m 0,0 km/h N 10,3 C 15,4 C 0,0 km/h
19.07.2011 01:00 14,8 C 74 % 1008,4 hPa 0,0 l/m 0,0 km/h N 10,2 C 14,8 C 1,2 km/h
19.07.2011 02:00 14,7 C 74 % 1008,2 hPa 0,0 l/m 0,0 km/h N 10,1 C 14,7 C 0,0 km/h
19.07.2011 03:00 13,8 C 76 % 1007,9 hPa 0,0 l/m 0,0 km/h N 9,6 C 13,8 C 0,0 km/h
19.07.2011 04:00 13,0 C 79 % 1007,9 hPa 0,0 l/m 0,0 km/h N 9,4 C 13,0 C 0,4 km/h
19.07.2011 05:00 12,6 C 81 % 1008,1 hPa 0,0 l/m 0,0 km/h N 9,4 C 12,6 C 1,2 km/h
19.07.2011 06:00 13,0 C 82 % 1008,2 hPa 0,0 l/m 0,0 km/h N 9,9 C 13,0 C 1,2 km/h
19.07.2011 07:00 14,3 C 80 % 1008,1 hPa 0,0 l/m 0,0 km/h N 10,9 C 14,3 C 0,4 km/h
19.07.2011 08:00 16,2 C 75 % 1008,0 hPa 0,0 l/m 0,0 km/h N 11,7 C 16,2 C 0,8 km/h
19.07.2011 09:00 18,5 C 68 % 1007,7 hPa 0,0 l/m 0,2 km/h N 12,4 C 18,5 C 2,8 km/h
19.07.2011 10:00 21,0 C 61 % 1007,3 hPa 0,0 l/m 0,6 km/h N-NO 13,0 C 21,0 C 4,0 km/h
19.07.2011 11:00 24,4 C 52 % 1006,7 hPa 0,0 l/m 0,8 km/h N 14,0 C 24,4 C 6,4 km/h
19.07.2011 12:00 26,8 C 49 % 1006,0 hPa 0,0 l/m 1,5 km/h O 15,0 C 26,8 C 10,9 km/h
19.07.2011 13:00 28,5 C 47 % 1005,2 hPa 0,0 l/m 1,7 km/h O 15,9 C 28,5 C 9,3 km/h
19.07.2011 14:00 29,5 C 45 % 1004,5 hPa 0,0 l/m 1,5 km/h O 16,2 C 29,5 C 10,5 km/h
19.07.2011 15:00 29,1 C 46 % 1004,0 hPa 0,0 l/m 2,0 km/h SO 16,2 C 29,1 C 13,7 km/h
19.07.2011 16:00 28,5 C 49 % 1003,2 hPa 0,0 l/m 2,1 km/h O 16,6 C 28,5 C 10,9 km/h
19.07.2011 17:00 28,8 C 47 % 1002,1 hPa 0,0 l/m 3,6 km/h O-SO 16,4 C 28,8 C 18,9 km/h
19.07.2011 18:00 27,9 C 49 % 1001,3 hPa 0,0 l/m 3,9 km/h S 16,0 C 27,9 C 21,3 km/h
19.07.2011 19:00 26,4 C 53 % 1001,4 hPa 0,0 l/m 3,0 km/h O 15,9 C 26,4 C 17,3 km/h
19.07.2011 20:00 25,4 C 56 % 1001,0 hPa 0,0 l/m 1,9 km/h S 15,9 C 25,4 C 10,1 km/h
19.07.2011 21:00 24,5 C 61 % 1000,8 hPa 0,0 l/m 0,9 km/h S 16,4 C 24,5 C 7,6 km/h
19.07.2011 22:00 23,8 C 64 % 1000,1 hPa 0,0 l/m 0,1 km/h N 16,5 C 23,8 C 2,4 km/h
19.07.2011 23:00 22,5 C 69 % 999,4 hPa 0,0 l/m 0,0 km/h N 16,5 C 22,5 C 0,4 km/h
20.07.2011 00:00 21,0 C 74 % 999,0 hPa 0,0 l/m 0,0 km/h N 16,3 C 21,0 C 0,0 km/h
20.07.2011 01:00 20,4 C 77 % 998,0 hPa 0,0 l/m 0,0 km/h N 16,2 C 20,4 C 0,8 km/h
20.07.2011 02:00 20,4 C 76 % 997,8 hPa 0,0 l/m 0,0 km/h N 16,0 C 20,4 C 2,0 km/h
20.07.2011 03:00 20,2 C 78 % 997,6 hPa 0,0 l/m 0,0 km/h N 16,2 C 20,2 C 1,2 km/h
20.07.2011 04:00 19,9 C 80 % 997,5 hPa 0,0 l/m 0,1 km/h N 16,3 C 19,9 C 1,6 km/h
20.07.2011 05:00 18,8 C 77 % 998,3 hPa 0,0 l/m 0,9 km/h SO 14,7 C 18,8 C 7,7 km/h
20.07.2011 06:00 18,6 C 70 % 998,6 hPa 0,0 l/m 3,6 km/h S-SO 13,0 C 18,6 C 19,3 km/h
20.07.2011 07:00 17,9 C 66 % 999,4 hPa 0,0 l/m 6,9 km/h W-NW 11,4 C 17,3 C 26,6 km/h
20.07.2011 08:00 17,3 C 62 % 999,8 hPa 0,0 l/m 8,4 km/h W-SW 9,9 C 16,3 C 29,4 km/h
20.07.2011 09:00 16,6 C 63 % 1000,1 hPa 0,0 l/m 8,7 km/h S-SW 9,5 C 15,4 C 36,2 km/h
20.07.2011 10:00 16,2 C 64 % 999,9 hPa 0,0 l/m 9,3 km/h SW 9,5 C 14,8 C 33,8 km/h
20.07.2011 11:00 16,3 C 66 % 1000,2 hPa 0,0 l/m 8,2 km/h W-SW 9,8 C 15,3 C 33,8 km/h
20.07.2011 12:00 16,8 C 64 % 1000,6 hPa 0,0 l/m 8,6 km/h SW 10,0 C 15,8 C 36,6 km/h
20.07.2011 13:00 17,4 C 63 % 1001,0 hPa 0,0 l/m 7,4 km/h O-NO 10,3 C 16,8 C 31,0 km/h
20.07.2011 14:00 17,1 C 67 % 1000,8 hPa 0,0 l/m 7,6 km/h W-SW 10,8 C 16,5 C 28,6 km/h
20.07.2011 15:00 18,5 C 60 % 1001,0 hPa 0,0 l/m 9,7 km/h NW 10,7 C 17,1 C 33,4 km/h
20.07.2011 16:00 19,9 C 55 % 1000,8 hPa 0,0 l/m 10,4 km/h N 10,7 C 18,5 C 37,8 km/h
20.07.2011 17:00 20,3 C 53 % 1000,3 hPa 0,0 l/m 10,4 km/h W-SW 10,4 C 18,8 C 38,2 km/h
20.07.2011 18:00 19,4 C 56 % 1000,6 hPa 0,0 l/m 10,4 km/h NO 10,2 C 17,8 C 39,0 km/h
20.07.2011 19:00 17,5 C 62 % 1000,7 hPa 0,0 l/m 8,8 km/h SW 10,0 C 16,4 C 32,6 km/h
20.07.2011 20:00 16,5 C 66 % 1000,5 hPa 0,0 l/m 7,2 km/h N-NO 10,2 C 16,1 C 32,2 km/h
20.07.2011 21:00 16,2 C 71 % 1001,4 hPa 0,0 l/m 7,8 km/h W-SW 10,8 C 15,5 C 34,6 km/h
20.07.2011 22:00 16,3 C 73 % 1001,6 hPa 0,0 l/m 8,5 km/h NW 11,4 C 15,2 C 35,0 km/h
20.07.2011 23:00 16,4 C 73 % 1001,2 hPa 0,0 l/m 8,4 km/h W 11,5 C 15,4 C 32,6 km/h
21.07.2011 00:00 16,6 C 73 % 1001,5 hPa 0,0 l/m 6,4 km/h NW 11,7 C 16,4 C 24,9 km/h
21.07.2011 01:00 16,8 C 74 % 1001,3 hPa 0,0 l/m 5,4 km/h NW 12,1 C 16,8 C 25,7 km/h
21.07.2011 02:00 16,7 C 76 % 1001,2 hPa 0,0 l/m 4,8 km/h SW 12,4 C 16,7 C 24,5 km/h
21.07.2011 03:00 16,5 C 78 % 1000,9 hPa 0,3 l/m 6,3 km/h S-SW 12,5 C 16,3 C 25,8 km/h
21.07.2011 04:00 15,7 C 81 % 1000,6 hPa 0,3 l/m 6,7 km/h W 12,4 C 15,4 C 28,2 km/h
21.07.2011 05:00 15,1 C 81 % 1000,7 hPa 2,9 l/m 8,5 km/h S-SO 11,8 C 13,9 C 30,5 km/h
21.07.2011 06:00 14,5 C 82 % 1001,1 hPa 5,2 l/m 9,8 km/h W-SW 11,5 C 12,7 C 31,8 km/h
21.07.2011 07:00 14,5 C 81 % 1001,5 hPa 4,9 l/m 9,5 km/h W-SW 11,3 C 12,8 C 33,0 km/h
21.07.2011 08:00 14,8 C 82 % 1001,6 hPa 2,1 l/m 8,3 km/h W-NW 11,7 C 13,7 C 31,4 km/h
21.07.2011 09:00 15,1 C 82 % 1002,0 hPa 0,5 l/m 8,5 km/h NW 12,0 C 14,0 C 31,8 km/h
21.07.2011 10:00 16,0 C 81 % 1002,4 hPa 0,0 l/m 8,4 km/h SW 12,6 C 15,0 C 34,6 km/h
21.07.2011 11:00 16,9 C 78 % 1002,6 hPa 0,0 l/m 6,0 km/h S-SW 13,0 C 16,9 C 25,3 km/h
21.07.2011 12:00 17,5 C 74 % 1003,0 hPa 0,0 l/m 5,3 km/h SW 12,8 C 17,5 C 20,5 km/h
21.07.2011 13:00 17,5 C 75 % 1003,3 hPa 0,0 l/m 3,4 km/h N-NO 13,0 C 17,5 C 23,4 km/h
21.07.2011 14:00 17,0 C 80 % 1003,5 hPa 0,5 l/m 2,1 km/h S-SW 13,5 C 17,0 C 12,8 km/h
21.07.2011 15:00 18,8 C 73 % 1003,5 hPa 1,0 l/m 2,8 km/h S 13,8 C 18,8 C 18,9 km/h
21.07.2011 16:00 18,5 C 76 % 1003,8 hPa 0,3 l/m 1,6 km/h NO 14,2 C 18,5 C 6,8 km/h
21.07.2011 17:00 17,6 C 80 % 1004,0 hPa 1,0 l/m 1,0 km/h SW 14,0 C 17,6 C 8,4 km/h
21.07.2011 18:00 17,5 C 78 % 1004,1 hPa 0,0 l/m 1,8 km/h SW 13,6 C 17,5 C 14,5 km/h
21.07.2011 19:00 16,9 C 77 % 1004,2 hPa 0,0 l/m 1,8 km/h S 12,9 C 16,9 C 8,8 km/h
21.07.2011 20:00 16,4 C 76 % 1004,5 hPa 0,0 l/m 1,4 km/h W-NW 12,0 C 16,4 C 7,2 km/h
21.07.2011 21:00 16,2 C 76 % 1004,8 hPa 0,0 l/m 1,3 km/h S 11,9 C 16,2 C 8,4 km/h
21.07.2011 22:00 16,4 C 77 % 1005,1 hPa 0,0 l/m 0,9 km/h SW 12,4 C 16,4 C 6,8 km/h
21.07.2011 23:00 16,4 C 76 % 1005,2 hPa 0,0 l/m 1,1 km/h N 12,1 C 16,4 C 13,3 km/h
22.07.2011 00:00 16,5 C 74 % 1004,8 hPa 0,0 l/m 1,3 km/h S-SW 11,9 C 16,5 C 11,3 km/h
22.07.2011 01:00 16,5 C 74 % 1004,7 hPa 0,0 l/m 2,8 km/h S-SW 11,8 C 16,5 C 18,5 km/h
22.07.2011 02:00 16,5 C 75 % 1004,3 hPa 0,0 l/m 3,8 km/h SW 12,0 C 16,5 C 18,1 km/h
22.07.2011 03:00 16,8 C 75 % 1004,4 hPa 0,0 l/m 3,2 km/h SW 12,3 C 16,8 C 16,9 km/h
22.07.2011 04:00 16,8 C 75 % 1004,3 hPa 0,0 l/m 3,7 km/h S-SW 12,3 C 16,8 C 22,1 km/h
22.07.2011 05:00 16,6 C 75 % 1004,4 hPa 0,0 l/m 3,3 km/h SW 12,2 C 16,6 C 18,5 km/h
22.07.2011 06:00 16,8 C 75 % 1004,6 hPa 0,0 l/m 3,0 km/h SW 12,2 C 16,8 C 18,9 km/h
22.07.2011 07:00 17,2 C 73 % 1004,7 hPa 0,0 l/m 4,4 km/h W-SW 12,4 C 17,2 C 23,3 km/h
22.07.2011 08:00 18,0 C 72 % 1005,0 hPa 0,0 l/m 3,7 km/h S-SW 12,8 C 18,0 C 20,1 km/h
22.07.2011 09:00 18,7 C 69 % 1005,0 hPa 0,0 l/m 5,3 km/h SW 12,9 C 18,6 C 22,9 km/h
22.07.2011 10:00 19,7 C 66 % 1005,1 hPa 0,0 l/m 5,1 km/h SW 13,0 C 19,6 C 24,9 km/h
22.07.2011 11:00 21,4 C 60 % 1005,1 hPa 0,0 l/m 6,8 km/h SW 13,2 C 21,1 C 28,2 km/h
22.07.2011 12:00 22,5 C 55 % 1005,1 hPa 0,0 l/m 8,9 km/h S 13,1 C 21,8 C 27,3 km/h
22.07.2011 13:00 23,6 C 52 % 1005,3 hPa 0,0 l/m 8,1 km/h O-SO 13,0 C 23,1 C 28,1 km/h
22.07.2011 14:00 23,1 C 52 % 1005,8 hPa 0,0 l/m 7,3 km/h S 12,6 C 22,8 C 24,1 km/h
22.07.2011 15:00 22,0 C 56 % 1006,4 hPa 0,0 l/m 4,1 km/h NW 12,7 C 22,0 C 20,5 km/h
22.07.2011 16:00 20,9 C 60 % 1006,8 hPa 0,0 l/m 5,2 km/h W-SW 12,8 C 20,8 C 19,7 km/h
22.07.2011 17:00 20,6 C 57 % 1006,8 hPa 0,0 l/m 5,0 km/h SW 11,8 C 20,6 C 20,1 km/h
22.07.2011 18:00 21,9 C 56 % 1006,7 hPa 0,0 l/m 3,3 km/h S-SO 12,6 C 21,9 C 16,9 km/h
22.07.2011 19:00 20,5 C 59 % 1006,8 hPa 0,0 l/m 4,3 km/h S 12,2 C 20,5 C 21,7 km/h
22.07.2011 20:00 19,4 C 61 % 1006,9 hPa 0,0 l/m 4,2 km/h W-SW 11,7 C 19,4 C 19,3 km/h
22.07.2011 21:00 18,4 C 64 % 1007,4 hPa 0,0 l/m 3,0 km/h SO 11,4 C 18,4 C 14,9 km/h
22.07.2011 22:00 17,8 C 63 % 1008,0 hPa 0,0 l/m 1,1 km/h S 10,7 C 17,8 C 12,9 km/h
22.07.2011 23:00 17,5 C 65 % 1008,2 hPa 0,0 l/m 1,9 km/h S 10,8 C 17,5 C 9,2 km/h
23.07.2011 00:00 17,1 C 69 % 1008,0 hPa 0,0 l/m 1,8 km/h O-NO 11,3 C 17,1 C 14,9 km/h
23.07.2011 01:00 17,1 C 71 % 1008,5 hPa 0,0 l/m 0,5 km/h S-SO 11,7 C 17,1 C 5,6 km/h
23.07.2011 02:00 16,5 C 74 % 1008,6 hPa 0,0 l/m 0,5 km/h N 11,8 C 16,5 C 9,3 km/h
23.07.2011 03:00 16,5 C 74 % 1008,5 hPa 0,0 l/m 0,6 km/h NW 11,8 C 16,5 C 5,6 km/h
23.07.2011 04:00 16,8 C 73 % 1008,7 hPa 0,0 l/m 0,8 km/h N 11,9 C 16,8 C 8,5 km/h
23.07.2011 05:00 16,8 C 74 % 1008,6 hPa 0,0 l/m 0,2 km/h N 12,0 C 16,8 C 4,0 km/h
23.07.2011 06:00 16,6 C 75 % 1009,0 hPa 0,0 l/m 0,5 km/h SW 12,0 C 16,6 C 5,2 km/h
23.07.2011 07:00 16,8 C 74 % 1008,9 hPa 0,0 l/m 0,3 km/h N 12,2 C 16,8 C 3,2 km/h
23.07.2011 08:00 17,5 C 74 % 1009,1 hPa 0,0 l/m 0,3 km/h N 12,8 C 17,5 C 3,6 km/h
23.07.2011 09:00 19,1 C 69 % 1009,0 hPa 0,0 l/m 1,3 km/h N-NW 13,3 C 19,1 C 5,6 km/h
23.07.2011 10:00 20,1 C 62 % 1008,9 hPa 0,0 l/m 0,8 km/h N 12,6 C 20,1 C 5,6 km/h
23.07.2011 11:00 19,7 C 63 % 1009,0 hPa 0,0 l/m 0,1 km/h N 12,5 C 19,7 C 0,8 km/h
23.07.2011 12:00 19,6 C 69 % 1008,9 hPa 0,0 l/m 1,5 km/h S-SO 13,8 C 19,6 C 7,7 km/h
23.07.2011 13:00 18,5 C 77 % 1008,9 hPa 3,4 l/m 0,5 km/h N 14,3 C 18,5 C 5,6 km/h
23.07.2011 14:00 17,7 C 81 % 1008,7 hPa 1,6 l/m 0,0 km/h N 14,4 C 17,7 C 1,2 km/h
23.07.2011 15:00 18,2 C 81 % 1008,3 hPa 0,5 l/m 0,2 km/h N 14,9 C 18,2 C 3,2 km/h
23.07.2011 16:00 19,7 C 80 % 1007,9 hPa 0,0 l/m 0,2 km/h N 16,1 C 19,7 C 3,2 km/h
23.07.2011 17:00 21,2 C 70 % 1007,8 hPa 0,0 l/m 0,7 km/h S-SW 15,5 C 21,2 C 6,4 km/h
23.07.2011 18:00 20,2 C 71 % 1007,8 hPa 0,0 l/m 0,8 km/h N 14,7 C 20,2 C 6,0 km/h
23.07.2011 19:00 19,1 C 75 % 1007,8 hPa 0,0 l/m 0,5 km/h N 14,5 C 19,1 C 5,2 km/h
23.07.2011 20:00 18,4 C 80 % 1008,0 hPa 0,3 l/m 0,1 km/h N 14,8 C 18,4 C 2,0 km/h
23.07.2011 21:00 17,0 C 81 % 1008,5 hPa 0,0 l/m 0,2 km/h N 13,7 C 17,0 C 4,8 km/h
23.07.2011 22:00 15,9 C 81 % 1008,6 hPa 0,0 l/m 0,6 km/h S 12,6 C 15,9 C 7,2 km/h
23.07.2011 23:00 15,8 C 79 % 1008,5 hPa 0,0 l/m 1,6 km/h S 12,1 C 15,8 C 8,9 km/h
24.07.2011 00:00 15,5 C 79 % 1008,5 hPa 0,0 l/m 1,4 km/h S-SW 11,9 C 15,5 C 9,6 km/h
24.07.2011 01:00 15,3 C 79 % 1008,5 hPa 0,0 l/m 0,4 km/h S-SW 11,6 C 15,3 C 6,0 km/h
24.07.2011 02:00 15,1 C 78 % 1008,2 hPa 0,0 l/m 1,0 km/h S-SO 11,3 C 15,1 C 9,3 km/h
24.07.2011 03:00 15,0 C 77 % 1007,9 hPa 0,0 l/m 2,9 km/h NW 11,0 C 15,0 C 18,9 km/h
24.07.2011 04:00 14,5 C 78 % 1007,7 hPa 0,0 l/m 2,3 km/h W-SW 10,6 C 14,5 C 15,3 km/h
24.07.2011 05:00 14,1 C 78 % 1007,5 hPa 0,0 l/m 2,7 km/h O-SO 10,4 C 14,1 C 18,5 km/h
24.07.2011 06:00 14,1 C 78 % 1007,7 hPa 0,3 l/m 2,2 km/h SW 10,3 C 14,1 C 13,7 km/h
24.07.2011 07:00 14,4 C 78 % 1007,6 hPa 0,0 l/m 2,7 km/h NW 10,6 C 14,4 C 11,3 km/h
24.07.2011 08:00 14,9 C 76 % 1007,7 hPa 0,0 l/m 2,8 km/h N-NW 10,7 C 14,9 C 11,3 km/h
24.07.2011 09:00 15,8 C 73 % 1007,6 hPa 0,0 l/m 4,2 km/h W-SW 10,8 C 15,8 C 17,3 km/h
24.07.2011 10:00 15,5 C 73 % 1007,4 hPa 0,0 l/m 4,4 km/h NW 10,6 C 15,5 C 20,1 km/h
24.07.2011 11:00 15,2 C 71 % 1007,5 hPa 0,0 l/m 4,3 km/h S-SW 9,9 C 15,2 C 17,7 km/h
24.07.2011 12:00 15,6 C 69 % 1007,5 hPa 0,0 l/m 4,8 km/h S-SW 9,9 C 15,6 C 22,1 km/h
24.07.2011 13:00 15,7 C 68 % 1007,5 hPa 0,0 l/m 4,4 km/h S 9,7 C 15,7 C 18,5 km/h
24.07.2011 14:00 15,2 C 70 % 1007,3 hPa 0,0 l/m 4,1 km/h W-NW 9,7 C 15,2 C 20,1 km/h
24.07.2011 15:00 14,9 C 73 % 1007,2 hPa 0,0 l/m 4,7 km/h NW 10,1 C 14,9 C 21,7 km/h
24.07.2011 16:00 14,9 C 72 % 1007,3 hPa 0,0 l/m 5,6 km/h W-SW 9,7 C 14,7 C 24,5 km/h
24.07.2011 17:00 14,8 C 72 % 1007,5 hPa 0,0 l/m 5,6 km/h NW 9,8 C 14,8 C 25,8 km/h
24.07.2011 18:00 13,8 C 79 % 1007,8 hPa 1,0 l/m 5,8 km/h SW 10,2 C 13,8 C 23,3 km/h
24.07.2011 19:00 13,1 C 82 % 1008,1 hPa 1,3 l/m 5,1 km/h N-NO 10,1 C 13,1 C 25,8 km/h
24.07.2011 20:00 12,9 C 82 % 1008,2 hPa 0,5 l/m 4,7 km/h W-NW 9,9 C 12,9 C 21,3 km/h
24.07.2011 21:00 13,3 C 82 % 1008,4 hPa 0,3 l/m 5,5 km/h W-NW 10,3 C 13,3 C 25,3 km/h
24.07.2011 22:00 13,4 C 82 % 1008,8 hPa 0,0 l/m 5,6 km/h S 10,4 C 13,5 C 24,5 km/h
24.07.2011 23:00 13,3 C 82 % 1008,9 hPa 0,5 l/m 5,7 km/h SW 10,2 C 13,1 C 25,4 km/h
Min-Datum _ 19.07.11 18.07.11 20.07.11 - 18.07.11 - 18.07.11 21.07.11 18.07.11
_ Min-Zeit 05:45 16:00 04:00 - 09:30 - 16:00 06:45 20:45
Minimum _ 12,4 C 42 % 997,1 hPa - 0,0 km/h - 9,0 C 11,9 C 0,0 km/h
Max-Datum _ 19.07.11 19.07.11 23.07.11 21.07.11 20.07.11 - 19.07.11 19.07.11 20.07.11
_ Max-Zeit 14:45 06:15 08:15 06:45 16:15 - 16:30 14:45 17:15
Maximum _ 30,4 C 82 % 1009,1 hPa 5,2 l/m 13,2 km/h
N
- 16,8 C 30,4 C 46,7 km/h
W-SW
Durchschnitt _ 18,0 C 69 % 1005,3 hPa #28,6 l/m 3,2 km/h SW 12,1 C 17,9 C 15,2 km/h